sensor_id;sensor_type;location;lat;lon;timestamp;pressure;altitude;pressure_sealevel;temperature;humidity
76434;BME280;65265;53.200;6.080;2023-02-28T00:03:06;103291.91;;;3.05;94.75
76434;BME280;65265;53.200;6.080;2023-02-28T00:07:59;103274.63;;;3.01;94.54
76434;BME280;65265;53.200;6.080;2023-02-28T00:12:52;103285.16;;;2.97;94.58
76434;BME280;65265;53.200;6.080;2023-02-28T00:17:48;103281.16;;;2.99;94.77
76434;BME280;65265;53.200;6.080;2023-02-28T00:22:46;103282.94;;;3.00;94.75
76434;BME280;65265;53.200;6.080;2023-02-28T00:27:39;103286.84;;;3.05;94.97
76434;BME280;65265;53.200;6.080;2023-02-28T00:32:31;103274.94;;;3.04;94.91
76434;BME280;65265;53.200;6.080;2023-02-28T00:37:25;103280.75;;;3.03;94.55
76434;BME280;65265;53.200;6.080;2023-02-28T00:42:19;103278.22;;;3.03;94.68
76434;BME280;65265;53.200;6.080;2023-02-28T00:47:12;103268.47;;;3.06;94.93
76434;BME280;65265;53.200;6.080;2023-02-28T00:52:05;103270.25;;;3.07;94.76
76434;BME280;65265;53.200;6.080;2023-02-28T00:56:57;103280.50;;;3.08;95.05
76434;BME280;65265;53.200;6.080;2023-02-28T01:01:52;103278.16;;;3.10;94.97
76434;BME280;65265;53.200;6.080;2023-02-28T01:06:45;103272.78;;;3.07;94.99
76434;BME280;65265;53.200;6.080;2023-02-28T01:11:37;103276.03;;;3.06;94.86
76434;BME280;65265;53.200;6.080;2023-02-28T01:16:30;103261.56;;;3.05;95.08
76434;BME280;65265;53.200;6.080;2023-02-28T01:21:24;103266.81;;;3.06;94.93
76434;BME280;65265;53.200;6.080;2023-02-28T01:26:18;103251.31;;;3.03;94.98
76434;BME280;65265;53.200;6.080;2023-02-28T01:31:12;103248.25;;;3.06;95.12
76434;BME280;65265;53.200;6.080;2023-02-28T01:36:06;103253.28;;;3.06;95.49
76434;BME280;65265;53.200;6.080;2023-02-28T01:41:02;103240.91;;;3.00;95.29
76434;BME280;65265;53.200;6.080;2023-02-28T01:45:56;103243.75;;;3.03;95.58
76434;BME280;65265;53.200;6.080;2023-02-28T01:50:49;103240.31;;;3.03;95.76
76434;BME280;65265;53.200;6.080;2023-02-28T01:55:44;103241.34;;;3.05;95.97
76434;BME280;65265;53.200;6.080;2023-02-28T02:00:40;103239.00;;;3.06;96.11
76434;BME280;65265;53.200;6.080;2023-02-28T02:05:33;103242.34;;;3.14;96.22
76434;BME280;65265;53.200;6.080;2023-02-28T02:10:31;103243.00;;;3.20;96.44
76434;BME280;65265;53.200;6.080;2023-02-28T02:15:29;103232.91;;;3.20;96.38
76434;BME280;65265;53.200;6.080;2023-02-28T02:25:54;103213.81;;;3.15;96.18
76434;BME280;65265;53.200;6.080;2023-02-28T02:36:24;103206.88;;;3.21;96.44
76434;BME280;65265;53.200;6.080;2023-02-28T02:41:23;103214.97;;;3.25;96.38
76434;BME280;65265;53.200;6.080;2023-02-28T02:46:20;103215.44;;;3.30;96.54
76434;BME280;65265;53.200;6.080;2023-02-28T02:51:15;103213.41;;;3.34;96.43
76434;BME280;65265;53.200;6.080;2023-02-28T02:56:12;103209.72;;;3.39;96.67
76434;BME280;65265;53.200;6.080;2023-02-28T03:01:05;103199.75;;;3.41;96.61
76434;BME280;65265;53.200;6.080;2023-02-28T03:06:01;103188.16;;;3.43;97.01
76434;BME280;65265;53.200;6.080;2023-02-28T03:10:58;103202.91;;;3.47;96.93
76434;BME280;65265;53.200;6.080;2023-02-28T03:16:01;103205.75;;;3.50;97.12
76434;BME280;65265;53.200;6.080;2023-02-28T03:21:06;103206.09;;;3.53;97.40
76434;BME280;65265;53.200;6.080;2023-02-28T03:26:11;103203.16;;;3.57;97.33
76434;BME280;65265;53.200;6.080;2023-02-28T03:31:16;103204.53;;;3.62;97.62
76434;BME280;65265;53.200;6.080;2023-02-28T03:36:13;103192.59;;;3.61;97.64
76434;BME280;65265;53.200;6.080;2023-02-28T03:41:12;103183.97;;;3.59;97.50
76434;BME280;65265;53.200;6.080;2023-02-28T03:46:10;103198.75;;;3.63;97.63
76434;BME280;65265;53.200;6.080;2023-02-28T03:51:08;103192.19;;;3.65;97.57
76434;BME280;65265;53.200;6.080;2023-02-28T03:56:07;103187.13;;;3.65;97.62
76434;BME280;65265;53.200;6.080;2023-02-28T04:01:10;103181.91;;;3.63;97.65
76434;BME280;65265;53.200;6.080;2023-02-28T04:06:07;103183.38;;;3.61;97.85
76434;BME280;65265;53.200;6.080;2023-02-28T04:11:04;103190.41;;;3.64;97.67
76434;BME280;65265;53.200;6.080;2023-02-28T04:15:59;103190.41;;;3.64;97.77
76434;BME280;65265;53.200;6.080;2023-02-28T04:20:54;103198.88;;;3.64;97.74
76434;BME280;65265;53.200;6.080;2023-02-28T04:25:46;103192.19;;;3.65;97.78
76434;BME280;65265;53.200;6.080;2023-02-28T04:30:38;103190.72;;;3.67;97.76
76434;BME280;65265;53.200;6.080;2023-02-28T04:35:31;103180.59;;;3.67;97.67
76434;BME280;65265;53.200;6.080;2023-02-28T04:40:25;103187.34;;;3.75;97.73
76434;BME280;65265;53.200;6.080;2023-02-28T04:45:18;103188.84;;;3.73;97.50
76434;BME280;65265;53.200;6.080;2023-02-28T04:50:11;103190.28;;;3.71;97.95
76434;BME280;65265;53.200;6.080;2023-02-28T04:55:03;103200.59;;;3.72;98.18
76434;BME280;65265;53.200;6.080;2023-02-28T04:59:58;103197.63;;;3.76;98.44
76434;BME280;65265;53.200;6.080;2023-02-28T05:04:50;103199.31;;;3.84;98.48
76434;BME280;65265;53.200;6.080;2023-02-28T05:09:42;103207.06;;;3.86;99.00
76434;BME280;65265;53.200;6.080;2023-02-28T05:14:33;103204.84;;;3.89;99.02
76434;BME280;65265;53.200;6.080;2023-02-28T05:19:27;103205.16;;;3.92;99.25
76434;BME280;65265;53.200;6.080;2023-02-28T05:24:19;103204.09;;;3.90;98.83
76434;BME280;65265;53.200;6.080;2023-02-28T05:29:14;103210.44;;;3.78;98.56
76434;BME280;65265;53.200;6.080;2023-02-28T05:34:06;103209.91;;;3.65;98.55
76434;BME280;65265;53.200;6.080;2023-02-28T05:39:00;103212.44;;;3.65;98.38
76434;BME280;65265;53.200;6.080;2023-02-28T05:43:51;103216.53;;;3.56;98.21
76434;BME280;65265;53.200;6.080;2023-02-28T05:48:46;103209.63;;;3.46;98.02
76434;BME280;65265;53.200;6.080;2023-02-28T05:53:38;103217.56;;;3.34;97.62
76434;BME280;65265;53.200;6.080;2023-02-28T05:58:32;103214.78;;;3.24;97.62
76434;BME280;65265;53.200;6.080;2023-02-28T06:03:25;103209.66;;;3.15;97.36
76434;BME280;65265;53.200;6.080;2023-02-28T06:08:17;103221.13;;;3.05;97.11
76434;BME280;65265;53.200;6.080;2023-02-28T06:13:10;103216.91;;;2.97;96.96
76434;BME280;65265;53.200;6.080;2023-02-28T06:18:06;103225.63;;;2.92;97.02
76434;BME280;65265;53.200;6.080;2023-02-28T06:22:58;103223.50;;;2.88;97.05
76434;BME280;65265;53.200;6.080;2023-02-28T06:27:51;103240.53;;;2.82;97.31
76434;BME280;65265;53.200;6.080;2023-02-28T06:32:44;103234.59;;;2.81;97.81
76434;BME280;65265;53.200;6.080;2023-02-28T06:37:37;103254.94;;;2.83;97.92
76434;BME280;65265;53.200;6.080;2023-02-28T06:42:28;103249.56;;;2.80;97.71
76434;BME280;65265;53.200;6.080;2023-02-28T06:47:21;103260.09;;;2.76;98.03
76434;BME280;65265;53.200;6.080;2023-02-28T06:52:13;103271.06;;;2.76;98.17
76434;BME280;65265;53.200;6.080;2023-02-28T06:57:07;103276.72;;;2.74;98.03
76434;BME280;65265;53.200;6.080;2023-02-28T07:01:58;103283.56;;;2.75;98.08
76434;BME280;65265;53.200;6.080;2023-02-28T07:06:50;103287.88;;;2.76;97.76
76434;BME280;65265;53.200;6.080;2023-02-28T07:11:41;103290.88;;;2.65;97.63
76434;BME280;65265;53.200;6.080;2023-02-28T07:16:36;103298.13;;;2.62;97.07
76434;BME280;65265;53.200;6.080;2023-02-28T07:21:29;103301.75;;;2.57;96.84
76434;BME280;65265;53.200;6.080;2023-02-28T07:26:21;103303.13;;;2.46;97.06
76434;BME280;65265;53.200;6.080;2023-02-28T07:31:12;103302.59;;;2.42;97.45
76434;BME280;65265;53.200;6.080;2023-02-28T07:36:08;103306.75;;;2.41;97.63
76434;BME280;65265;53.200;6.080;2023-02-28T07:41:04;103314.81;;;2.46;97.23
76434;BME280;65265;53.200;6.080;2023-02-28T07:45:55;103309.78;;;2.46;97.22
76434;BME280;65265;53.200;6.080;2023-02-28T07:50:54;103320.44;;;2.43;97.14
76434;BME280;65265;53.200;6.080;2023-02-28T07:55:49;103320.66;;;2.38;97.43
76434;BME280;65265;53.200;6.080;2023-02-28T08:00:41;103313.25;;;2.39;97.74
76434;BME280;65265;53.200;6.080;2023-02-28T08:05:38;103320.94;;;2.48;97.74
76434;BME280;65265;53.200;6.080;2023-02-28T08:10:31;103319.53;;;2.43;97.53
76434;BME280;65265;53.200;6.080;2023-02-28T08:15:25;103326.56;;;2.45;97.35
76434;BME280;65265;53.200;6.080;2023-02-28T08:20:16;103323.31;;;2.46;97.17
76434;BME280;65265;53.200;6.080;2023-02-28T08:25:09;103329.25;;;2.47;97.06
76434;BME280;65265;53.200;6.080;2023-02-28T08:30:02;103323.09;;;2.52;97.13
76434;BME280;65265;53.200;6.080;2023-02-28T08:34:58;103326.13;;;2.56;97.33
76434;BME280;65265;53.200;6.080;2023-02-28T08:39:49;103341.06;;;2.62;97.55
76434;BME280;65265;53.200;6.080;2023-02-28T08:44:41;103334.88;;;2.67;97.37
76434;BME280;65265;53.200;6.080;2023-02-28T08:49:33;103337.00;;;2.71;97.21
76434;BME280;65265;53.200;6.080;2023-02-28T08:54:27;103339.28;;;2.76;97.22
76434;BME280;65265;53.200;6.080;2023-02-28T08:59:20;103331.44;;;2.89;97.52
76434;BME280;65265;53.200;6.080;2023-02-28T09:04:12;103331.69;;;2.99;96.67
76434;BME280;65265;53.200;6.080;2023-02-28T09:09:04;103334.19;;;3.06;96.49
76434;BME280;65265;53.200;6.080;2023-02-28T09:14:00;103344.28;;;3.21;95.78
76434;BME280;65265;53.200;6.080;2023-02-28T09:18:54;103342.13;;;3.40;95.90
76434;BME280;65265;53.200;6.080;2023-02-28T09:23:47;103349.47;;;3.45;94.93
76434;BME280;65265;53.200;6.080;2023-02-28T09:28:39;103355.97;;;3.43;93.59
76434;BME280;65265;53.200;6.080;2023-02-28T09:33:33;103352.88;;;3.46;93.66
76434;BME280;65265;53.200;6.080;2023-02-28T09:38:27;103341.53;;;3.58;94.94
76434;BME280;65265;53.200;6.080;2023-02-28T09:43:22;103328.09;;;3.66;94.62
76434;BME280;65265;53.200;6.080;2023-02-28T09:48:19;103344.88;;;3.81;93.54
76434;BME280;65265;53.200;6.080;2023-02-28T09:53:21;103352.75;;;3.99;92.62
76434;BME280;65265;53.200;6.080;2023-02-28T09:58:22;103339.75;;;4.12;91.41
76434;BME280;65265;53.200;6.080;2023-02-28T10:03:36;103354.34;;;4.54;92.96
76434;BME280;65265;53.200;6.080;2023-02-28T10:08:38;103347.06;;;4.89;91.32
76434;BME280;65265;53.200;6.080;2023-02-28T10:13:38;103342.69;;;5.12;89.82
76434;BME280;65265;53.200;6.080;2023-02-28T10:18:42;103340.44;;;5.15;86.76
76434;BME280;65265;53.200;6.080;2023-02-28T10:23:38;103336.88;;;5.21;86.58
76434;BME280;65265;53.200;6.080;2023-02-28T10:28:30;103326.28;;;5.17;86.47
76434;BME280;65265;53.200;6.080;2023-02-28T10:33:24;103329.16;;;5.28;84.19
76434;BME280;65265;53.200;6.080;2023-02-28T10:38:23;103344.38;;;5.37;83.36
76434;BME280;65265;53.200;6.080;2023-02-28T10:43:22;103333.38;;;5.53;84.00
76434;BME280;65265;53.200;6.080;2023-02-28T10:48:30;103332.78;;;5.64;83.46
76434;BME280;65265;53.200;6.080;2023-02-28T10:53:31;103333.53;;;5.63;82.63
76434;BME280;65265;53.200;6.080;2023-02-28T10:58:30;103334.13;;;5.52;79.96
76434;BME280;65265;53.200;6.080;2023-02-28T11:03:27;103327.69;;;5.64;80.97
76434;BME280;65265;53.200;6.080;2023-02-28T11:08:21;103334.88;;;5.60;74.18
76434;BME280;65265;53.200;6.080;2023-02-28T11:13:17;103325.16;;;5.56;74.90
76434;BME280;65265;53.200;6.080;2023-02-28T11:18:22;103323.50;;;5.56;74.44
76434;BME280;65265;53.200;6.080;2023-02-28T11:23:16;103321.09;;;5.49;72.38
76434;BME280;65265;53.200;6.080;2023-02-28T11:28:25;103316.63;;;5.64;76.51
76434;BME280;65265;53.200;6.080;2023-02-28T11:33:37;103314.56;;;5.60;75.04
76434;BME280;65265;53.200;6.080;2023-02-28T11:38:34;103308.00;;;5.53;74.01
76434;BME280;65265;53.200;6.080;2023-02-28T11:43:39;103311.28;;;5.52;70.86
76434;BME280;65265;53.200;6.080;2023-02-28T11:48:44;103311.44;;;5.62;72.23
76434;BME280;65265;53.200;6.080;2023-02-28T11:53:51;103311.59;;;5.72;74.52
76434;BME280;65265;53.200;6.080;2023-02-28T11:59:01;103305.13;;;5.76;72.65
76434;BME280;65265;53.200;6.080;2023-02-28T12:04:08;103302.66;;;5.84;73.02
76434;BME280;65265;53.200;6.080;2023-02-28T12:09:27;103304.28;;;5.92;72.62
76434;BME280;65265;53.200;6.080;2023-02-28T12:14:47;103292.31;;;6.08;71.59
76434;BME280;65265;53.200;6.080;2023-02-28T12:19:54;103291.50;;;6.26;69.50
76434;BME280;65265;53.200;6.080;2023-02-28T12:30:15;103283.94;;;6.62;67.56
76434;BME280;65265;53.200;6.080;2023-02-28T12:35:20;103276.56;;;7.00;69.63
76434;BME280;65265;53.200;6.080;2023-02-28T12:40:17;103280.25;;;7.30;69.41
76434;BME280;65265;53.200;6.080;2023-02-28T12:45:17;103273.38;;;7.29;69.57
76434;BME280;65265;53.200;6.080;2023-02-28T12:50:13;103273.44;;;7.21;70.03
76434;BME280;65265;53.200;6.080;2023-02-28T12:55:12;103263.81;;;7.27;68.71
76434;BME280;65265;53.200;6.080;2023-02-28T13:00:13;103264.31;;;7.41;69.13
76434;BME280;65265;53.200;6.080;2023-02-28T13:10:43;103247.66;;;7.45;68.96
76434;BME280;65265;53.200;6.080;2023-02-28T13:15:37;103235.19;;;7.48;68.78
76434;BME280;65265;53.200;6.080;2023-02-28T13:20:36;103233.16;;;7.44;68.39
76434;BME280;65265;53.200;6.080;2023-02-28T13:25:54;103231.84;;;7.39;68.84
76434;BME280;65265;53.200;6.080;2023-02-28T13:31:05;103222.97;;;7.44;67.28
76434;BME280;65265;53.200;6.080;2023-02-28T13:36:09;103229.84;;;7.45;67.33
76434;BME280;65265;53.200;6.080;2023-02-28T13:46:36;103217.38;;;7.48;65.27
76434;BME280;65265;53.200;6.080;2023-02-28T13:51:48;103218.22;;;7.38;63.76
76434;BME280;65265;53.200;6.080;2023-02-28T13:56:48;103217.66;;;7.14;63.59
76434;BME280;65265;53.200;6.080;2023-02-28T14:01:59;103219.69;;;6.99;63.79
76434;BME280;65265;53.200;6.080;2023-02-28T14:06:55;103216.09;;;7.06;62.04
76434;BME280;65265;53.200;6.080;2023-02-28T14:11:49;103205.63;;;7.21;61.57
76434;BME280;65265;53.200;6.080;2023-02-28T14:16:44;103219.88;;;7.56;60.62
76434;BME280;65265;53.200;6.080;2023-02-28T14:21:47;103215.88;;;7.97;61.00
76434;BME280;65265;53.200;6.080;2023-02-28T14:32:14;103203.94;;;8.44;58.14
76434;BME280;65265;53.200;6.080;2023-02-28T14:37:26;103220.25;;;8.46;60.20
76434;BME280;65265;53.200;6.080;2023-02-28T14:42:30;103219.78;;;8.70;59.41
76434;BME280;65265;53.200;6.080;2023-02-28T14:47:26;103212.97;;;8.31;60.28
76434;BME280;65265;53.200;6.080;2023-02-28T14:52:24;103209.94;;;8.16;59.66
76434;BME280;65265;53.200;6.080;2023-02-28T14:57:22;103215.22;;;7.99;61.63
76434;BME280;65265;53.200;6.080;2023-02-28T15:02:21;103214.19;;;8.26;57.97
76434;BME280;65265;53.200;6.080;2023-02-28T15:07:14;103211.72;;;8.17;55.95
76434;BME280;65265;53.200;6.080;2023-02-28T15:12:15;103211.03;;;8.00;57.74
76434;BME280;65265;53.200;6.080;2023-02-28T15:17:11;103199.75;;;7.59;59.61
76434;BME280;65265;53.200;6.080;2023-02-28T15:22:13;103193.44;;;7.27;61.58
76434;BME280;65265;53.200;6.080;2023-02-28T15:27:21;103195.50;;;7.31;60.93
76434;BME280;65265;53.200;6.080;2023-02-28T15:32:26;103191.91;;;7.48;59.85
76434;BME280;65265;53.200;6.080;2023-02-28T15:37:37;103201.03;;;7.64;59.54
76434;BME280;65265;53.200;6.080;2023-02-28T15:42:33;103183.69;;;7.79;59.29
76434;BME280;65265;53.200;6.080;2023-02-28T15:47:27;103190.16;;;7.75;60.05
76434;BME280;65265;53.200;6.080;2023-02-28T15:52:27;103192.41;;;7.44;61.47
76434;BME280;65265;53.200;6.080;2023-02-28T15:57:25;103187.00;;;7.12;62.63
76434;BME280;65265;53.200;6.080;2023-02-28T16:02:27;103194.25;;;6.99;63.08
76434;BME280;65265;53.200;6.080;2023-02-28T16:07:22;103194.47;;;7.11;62.87
76434;BME280;65265;53.200;6.080;2023-02-28T16:12:15;103193.38;;;7.17;63.39
76434;BME280;65265;53.200;6.080;2023-02-28T16:17:09;103204.41;;;7.26;62.10
76434;BME280;65265;53.200;6.080;2023-02-28T16:22:09;103198.13;;;7.04;63.53
76434;BME280;65265;53.200;6.080;2023-02-28T16:27:02;103205.06;;;6.70;63.34
76434;BME280;65265;53.200;6.080;2023-02-28T16:31:54;103209.72;;;6.66;66.15
76434;BME280;65265;53.200;6.080;2023-02-28T16:36:48;103214.88;;;6.57;65.87
76434;BME280;65265;53.200;6.080;2023-02-28T16:41:45;103220.88;;;6.49;65.81
76434;BME280;65265;53.200;6.080;2023-02-28T16:46:39;103226.03;;;6.32;66.90
76434;BME280;65265;53.200;6.080;2023-02-28T16:51:32;103221.88;;;6.24;67.64
76434;BME280;65265;53.200;6.080;2023-02-28T16:56:24;103224.66;;;6.00;67.50
76434;BME280;65265;53.200;6.080;2023-02-28T17:01:19;103225.13;;;5.79;68.21
76434;BME280;65265;53.200;6.080;2023-02-28T17:06:17;103231.25;;;5.56;70.49
76434;BME280;65265;53.200;6.080;2023-02-28T17:11:12;103233.00;;;5.14;74.94
76434;BME280;65265;53.200;6.080;2023-02-28T17:16:04;103241.00;;;4.76;76.71
76434;BME280;65265;53.200;6.080;2023-02-28T17:20:58;103234.31;;;4.45;79.24
76434;BME280;65265;53.200;6.080;2023-02-28T17:25:50;103244.25;;;4.35;80.58
76434;BME280;65265;53.200;6.080;2023-02-28T17:30:44;103245.75;;;4.33;81.75
76434;BME280;65265;53.200;6.080;2023-02-28T17:35:38;103249.88;;;4.24;80.50
76434;BME280;65265;53.200;6.080;2023-02-28T17:40:33;103244.09;;;4.01;79.91
76434;BME280;65265;53.200;6.080;2023-02-28T17:45:26;103261.00;;;3.93;80.18
76434;BME280;65265;53.200;6.080;2023-02-28T17:50:21;103266.75;;;3.84;80.57
76434;BME280;65265;53.200;6.080;2023-02-28T17:55:14;103268.72;;;3.71;80.83
76434;BME280;65265;53.200;6.080;2023-02-28T18:00:12;103272.34;;;3.73;84.29
76434;BME280;65265;53.200;6.080;2023-02-28T18:05:07;103277.66;;;3.67;84.93
76434;BME280;65265;53.200;6.080;2023-02-28T18:10:00;103272.84;;;3.62;85.52
76434;BME280;65265;53.200;6.080;2023-02-28T18:14:53;103267.63;;;3.45;85.94
76434;BME280;65265;53.200;6.080;2023-02-28T18:19:47;103276.44;;;3.33;86.42
76434;BME280;65265;53.200;6.080;2023-02-28T18:24:40;103272.88;;;3.31;86.42
76434;BME280;65265;53.200;6.080;2023-02-28T18:29:33;103274.97;;;3.19;85.25
76434;BME280;65265;53.200;6.080;2023-02-28T18:34:25;103269.50;;;2.92;84.16
76434;BME280;65265;53.200;6.080;2023-02-28T18:39:19;103273.88;;;2.86;84.79
76434;BME280;65265;53.200;6.080;2023-02-28T18:44:12;103271.25;;;2.78;87.46
76434;BME280;65265;53.200;6.080;2023-02-28T18:49:04;103276.72;;;2.74;86.21
76434;BME280;65265;53.200;6.080;2023-02-28T18:53:58;103276.16;;;2.54;85.48
76434;BME280;65265;53.200;6.080;2023-02-28T18:58:53;103271.28;;;2.33;85.29
76434;BME280;65265;53.200;6.080;2023-02-28T19:03:47;103274.06;;;2.21;85.91
76434;BME280;65265;53.200;6.080;2023-02-28T19:08:40;103263.81;;;2.41;88.58
76434;BME280;65265;53.200;6.080;2023-02-28T19:13:32;103269.47;;;2.54;90.07
76434;BME280;65265;53.200;6.080;2023-02-28T19:18:27;103270.72;;;2.58;89.54
76434;BME280;65265;53.200;6.080;2023-02-28T19:23:20;103274.22;;;2.29;88.29
76434;BME280;65265;53.200;6.080;2023-02-28T19:28:13;103277.72;;;2.16;88.06
76434;BME280;65265;53.200;6.080;2023-02-28T19:33:05;103277.69;;;1.93;87.98
76434;BME280;65265;53.200;6.080;2023-02-28T19:37:59;103285.50;;;1.81;88.26
76434;BME280;65265;53.200;6.080;2023-02-28T19:42:52;103285.03;;;1.69;88.83
76434;BME280;65265;53.200;6.080;2023-02-28T19:47:44;103287.59;;;1.62;89.57
76434;BME280;65265;53.200;6.080;2023-02-28T19:52:37;103282.56;;;1.55;89.13
76434;BME280;65265;53.200;6.080;2023-02-28T19:57:35;103296.84;;;1.48;89.03
76434;BME280;65265;53.200;6.080;2023-02-28T20:02:27;103300.81;;;1.39;88.81
76434;BME280;65265;53.200;6.080;2023-02-28T20:07:20;103297.25;;;1.30;88.71
76434;BME280;65265;53.200;6.080;2023-02-28T20:12:13;103302.31;;;1.23;88.99
76434;BME280;65265;53.200;6.080;2023-02-28T20:17:07;103305.19;;;1.26;89.39
76434;BME280;65265;53.200;6.080;2023-02-28T20:21:59;103308.97;;;1.22;89.78
76434;BME280;65265;53.200;6.080;2023-02-28T20:26:52;103311.16;;;1.19;90.15
76434;BME280;65265;53.200;6.080;2023-02-28T20:31:44;103295.31;;;1.13;90.09
76434;BME280;65265;53.200;6.080;2023-02-28T20:36:39;103291.38;;;1.08;90.87
76434;BME280;65265;53.200;6.080;2023-02-28T20:41:32;103304.69;;;1.00;90.75
76434;BME280;65265;53.200;6.080;2023-02-28T20:46:24;103296.09;;;0.84;90.22
76434;BME280;65265;53.200;6.080;2023-02-28T20:51:16;103281.91;;;0.71;90.69
76434;BME280;65265;53.200;6.080;2023-02-28T20:56:12;103292.66;;;0.77;91.40
76434;BME280;65265;53.200;6.080;2023-02-28T21:01:07;103297.19;;;0.72;91.68
76434;BME280;65265;53.200;6.080;2023-02-28T21:06:05;103296.63;;;0.75;92.50
76434;BME280;65265;53.200;6.080;2023-02-28T21:10:59;103302.22;;;0.72;92.91
76434;BME280;65265;53.200;6.080;2023-02-28T21:15:53;103302.41;;;0.67;92.99
76434;BME280;65265;53.200;6.080;2023-02-28T21:20:45;103310.47;;;0.71;93.27
76434;BME280;65265;53.200;6.080;2023-02-28T21:25:38;103307.94;;;0.71;93.93
76434;BME280;65265;53.200;6.080;2023-02-28T21:30:32;103313.56;;;0.69;93.86
76434;BME280;65265;53.200;6.080;2023-02-28T21:35:26;103309.56;;;0.64;94.30
76434;BME280;65265;53.200;6.080;2023-02-28T21:40:19;103313.91;;;0.58;94.58
76434;BME280;65265;53.200;6.080;2023-02-28T21:45:11;103326.84;;;0.54;94.46
76434;BME280;65265;53.200;6.080;2023-02-28T21:50:06;103319.09;;;0.45;94.61
76434;BME280;65265;53.200;6.080;2023-02-28T21:55:03;103313.19;;;0.38;94.48
76434;BME280;65265;53.200;6.080;2023-02-28T21:59:55;103314.06;;;0.31;94.53
76434;BME280;65265;53.200;6.080;2023-02-28T22:04:48;103320.16;;;0.19;93.58
76434;BME280;65265;53.200;6.080;2023-02-28T22:09:41;103320.47;;;0.01;93.11
76434;BME280;65265;53.200;6.080;2023-02-28T22:14:37;103319.91;;;-0.10;93.13
76434;BME280;65265;53.200;6.080;2023-02-28T22:19:30;103324.75;;;-0.11;93.94
76434;BME280;65265;53.200;6.080;2023-02-28T22:24:23;103317.84;;;-0.33;93.31
76434;BME280;65265;53.200;6.080;2023-02-28T22:29:15;103314.72;;;-0.52;93.54
76434;BME280;65265;53.200;6.080;2023-02-28T22:34:10;103340.94;;;-0.50;93.83
76434;BME280;65265;53.200;6.080;2023-02-28T22:39:03;103331.75;;;-0.56;93.94
76434;BME280;65265;53.200;6.080;2023-02-28T22:43:58;103338.19;;;-0.58;94.06
76434;BME280;65265;53.200;6.080;2023-02-28T22:48:52;103344.81;;;-0.66;93.91
76434;BME280;65265;53.200;6.080;2023-02-28T22:53:47;103354.59;;;-0.74;93.76
76434;BME280;65265;53.200;6.080;2023-02-28T22:58:42;103342.66;;;-0.89;93.16
76434;BME280;65265;53.200;6.080;2023-02-28T23:03:34;103332.78;;;-0.95;93.52
76434;BME280;65265;53.200;6.080;2023-02-28T23:08:27;103344.97;;;-0.91;93.60
76434;BME280;65265;53.200;6.080;2023-02-28T23:13:21;103336.13;;;-1.01;92.65
76434;BME280;65265;53.200;6.080;2023-02-28T23:18:14;103322.63;;;-1.09;93.11
76434;BME280;65265;53.200;6.080;2023-02-28T23:23:07;103324.72;;;-1.19;92.90
76434;BME280;65265;53.200;6.080;2023-02-28T23:28:00;103327.94;;;-1.20;92.79
76434;BME280;65265;53.200;6.080;2023-02-28T23:32:56;103329.88;;;-1.24;93.42
76434;BME280;65265;53.200;6.080;2023-02-28T23:37:49;103336.81;;;-1.29;93.70
76434;BME280;65265;53.200;6.080;2023-02-28T23:42:41;103335.44;;;-1.39;93.47
76434;BME280;65265;53.200;6.080;2023-02-28T23:47:34;103338.16;;;-1.38;93.93
76434;BME280;65265;53.200;6.080;2023-02-28T23:52:32;103332.94;;;-1.39;93.92
76434;BME280;65265;53.200;6.080;2023-02-28T23:57:24;103339.38;;;-1.41;94.19
